createdAt,value
2016-11-12T00:00:35.843Z,73.72
2016-11-12T00:01:35.847Z,74.11
2016-11-12T00:02:35.866Z,74.2
2016-11-12T00:03:36.499Z,73.72
2016-11-12T00:04:36.689Z,73.44
2016-11-12T00:05:36.223Z,73.07
2016-11-12T00:06:36.238Z,73.25
2016-11-12T00:07:36.249Z,73.35
2016-11-12T00:08:36.268Z,73.25
2016-11-12T00:09:36.277Z,73.29
2016-11-12T00:10:35.977Z,72.78
2016-11-12T00:11:35.991Z,73.16
2016-11-12T00:12:36.321Z,72.97
2016-11-12T00:13:36.117Z,73.1
2016-11-12T00:14:36.032Z,72.91
2016-11-12T00:15:36.061Z,72.97
2016-11-12T00:16:36.376Z,72.78
2016-11-12T00:17:36.398Z,72.68
2016-11-12T00:18:36.092Z,72.49
2016-11-12T00:19:36.108Z,72.88
2016-11-12T00:20:36.437Z,72.68
2016-11-12T00:21:36.138Z,72.88
2016-11-12T00:22:36.150Z,73.35
2016-11-12T00:23:36.164Z,73.07
2016-11-12T00:24:36.492Z,73.16
2016-11-12T00:25:36.515Z,73.25
2016-11-12T00:26:36.208Z,73.54
2016-11-12T00:27:36.220Z,73.25
2016-11-12T00:28:36.609Z,73.35
2016-11-12T00:29:36.251Z,73.54
2016-11-12T00:30:36.581Z,73.16
2016-11-12T00:31:36.279Z,73.35
2016-11-12T00:32:36.609Z,73.16
2016-11-12T00:33:36.308Z,73.35
2016-11-12T00:34:36.637Z,73.35
2016-11-12T00:35:36.339Z,73.25
2016-11-12T00:36:36.354Z,72.3
2016-11-12T00:37:36.682Z,72.88
2016-11-12T00:38:36.696Z,73.16
2016-11-12T00:39:36.712Z,73.44
2016-11-12T00:40:36.725Z,73.35
2016-11-12T00:41:36.427Z,72.68
2016-11-12T00:42:36.440Z,73.25
2016-11-12T00:43:36.453Z,72.88
2016-11-12T00:44:36.471Z,72.3
2016-11-12T00:45:36.483Z,72.59
2016-11-12T00:46:36.812Z,72.68
2016-11-12T00:47:36.858Z,73.07
2016-11-12T00:48:36.850Z,72.68
2016-11-12T00:49:36.854Z,72.68
2016-11-12T00:50:36.866Z,72.68
2016-11-12T00:51:36.567Z,72.49
2016-11-12T00:52:36.585Z,72.49
2016-11-12T00:53:36.913Z,72.97
2016-11-12T00:54:36.934Z,72.68
2016-11-12T00:55:36.624Z,72.59
2016-11-12T00:56:36.957Z,72.97
2016-11-12T00:57:36.654Z,72.68
2016-11-12T00:58:36.986Z,72.78
2016-11-12T00:59:36.998Z,72.49
2016-11-12T01:00:36.699Z,72.88
2016-11-12T01:01:37.031Z,72.59
2016-11-12T01:02:36.727Z,72.49
2016-11-12T01:03:36.738Z,72.59
2016-11-12T01:04:37.074Z,72.4
2016-11-12T01:05:36.772Z,72.59
2016-11-12T01:06:36.785Z,72.68
2016-11-12T01:07:36.798Z,73.16
2016-11-12T01:08:36.812Z,73.16
2016-11-12T01:09:36.829Z,73.16
2016-11-12T01:10:37.159Z,72.78
2016-11-12T01:11:37.175Z,73.16
2016-11-12T01:12:36.871Z,73.16
2016-11-12T01:13:36.884Z,72.88
2016-11-12T01:14:51.787Z,72.88
2016-11-12T01:15:37.232Z,72.78
2016-11-12T01:16:36.928Z,72.97
2016-11-12T01:17:37.259Z,73.35
2016-11-12T01:18:36.958Z,73.35
2016-11-12T01:19:37.288Z,73.16
2016-11-12T01:20:36.985Z,73.35
2016-11-12T01:21:37.314Z,73.25
2016-11-12T01:22:37.015Z,73.35
2016-11-12T01:23:37.029Z,73.54
2016-11-12T01:24:37.356Z,72.68
2016-11-12T01:25:37.056Z,73.25
2016-11-12T01:26:37.385Z,72.97
2016-11-12T01:27:37.402Z,73.25
2016-11-12T01:28:37.415Z,73.25
2016-11-12T01:29:37.113Z,72.97
2016-11-12T01:30:37.130Z,72.68
2016-11-12T01:31:37.142Z,72.78
2016-11-12T01:32:37.155Z,72.78
2016-11-12T01:33:37.169Z,72.97
2016-11-12T01:34:37.500Z,72.78
2016-11-12T01:35:37.201Z,72.78
2016-11-12T01:36:37.526Z,72.97
2016-11-12T01:37:37.226Z,72.97
2016-11-12T01:38:37.559Z,73.16
2016-11-12T01:39:37.569Z,73.16
2016-11-12T01:40:37.583Z,73.35
2016-11-12T01:41:37.285Z,73.25
2016-11-12T01:42:37.301Z,73.16
2016-11-12T01:43:37.630Z,73.16
2016-11-12T01:44:37.328Z,73.25
2016-11-12T01:45:37.669Z,72.78
2016-11-12T01:46:37.358Z,72.91
2016-11-12T01:47:37.371Z,72.68
2016-11-12T01:48:37.705Z,73.25
2016-11-12T01:49:37.418Z,73.07
2016-11-12T01:50:37.727Z,72.59
2016-11-12T01:51:37.428Z,72.81
2016-11-12T01:52:37.764Z,72.97
2016-11-12T01:53:37.455Z,72.59
2016-11-12T01:54:37.473Z,72.78
2016-11-12T01:56:37.818Z,72.97
2016-11-12T01:57:37.514Z,73.54
2016-11-12T01:58:37.848Z,74.96
2016-11-12T01:59:37.543Z,75.72
2016-11-12T02:00:37.560Z,74.77
2016-11-12T02:01:37.887Z,75.91
2016-11-12T02:02:37.592Z,75.62
2016-11-12T02:03:37.917Z,75.34
2016-11-12T02:04:37.621Z,74.87
2016-11-12T02:05:37.652Z,74.87
2016-11-12T02:06:37.961Z,75.05
2016-11-12T02:07:37.657Z,75.24
2016-11-12T02:08:37.674Z,75.43
2016-11-12T02:09:37.689Z,75.62
2016-11-12T02:10:37.707Z,75.43
2016-11-12T02:11:37.717Z,74.2
2016-11-12T02:12:37.734Z,74.77
2016-11-12T02:13:38.060Z,75.53
2016-11-12T02:14:37.760Z,75.05
2016-11-12T02:15:37.779Z,75.24
2016-11-12T02:16:38.104Z,74.24
2016-11-12T02:17:37.805Z,74.3
2016-11-12T02:18:37.829Z,74.58
2016-11-12T02:19:37.841Z,74.39
2016-11-12T02:20:37.846Z,74.01
2016-11-12T02:21:37.861Z,74.2
2016-11-12T02:22:37.876Z,74.3
2016-11-12T02:23:38.208Z,73.82
2016-11-12T02:24:37.904Z,73.44
2016-11-12T02:25:37.916Z,73.35
2016-11-12T02:26:37.932Z,73.25
2016-11-12T02:27:37.944Z,72.97
2016-11-12T02:28:38.278Z,72.53
2016-11-12T02:29:38.304Z,72.81
2016-11-12T02:30:37.988Z,72.81
2016-11-12T02:31:38.004Z,72.53
2016-11-12T02:32:38.336Z,72.4
2016-11-12T02:33:38.374Z,71.73
2016-11-12T02:34:38.063Z,72.11
2016-11-12T02:35:38.062Z,72.11
2016-11-12T02:36:38.075Z,72.3
2016-11-12T02:37:38.088Z,72.11
2016-11-12T02:38:38.107Z,72.3
2016-11-12T02:39:38.435Z,72.3
2016-11-12T02:40:38.137Z,72.4
2016-11-12T02:41:38.146Z,72.59
2016-11-12T02:42:38.478Z,72.4
2016-11-12T02:43:38.493Z,72.11
2016-11-12T02:44:38.508Z,72.88
2016-11-12T02:45:38.519Z,72.68
2016-11-12T02:46:38.532Z,72.4
2016-11-12T02:47:38.559Z,72.78
2016-11-12T02:48:38.559Z,72.02
2016-11-12T02:49:38.263Z,72.21
2016-11-12T02:50:38.276Z,72.3
2016-11-12T02:51:38.292Z,71.83
2016-11-12T02:52:38.304Z,71.83
2016-11-12T02:53:38.635Z,71.73
2016-11-12T02:54:38.332Z,71.92
2016-11-12T02:55:38.664Z,72.11
2016-11-12T02:56:38.730Z,72.3
2016-11-12T02:57:38.377Z,72.78
2016-11-12T02:58:38.390Z,72.78
2016-11-12T02:59:38.724Z,72.02
2016-11-12T03:00:38.737Z,72.11
2016-11-12T03:01:38.440Z,71.73
2016-11-12T03:02:38.784Z,71.83
2016-11-12T03:03:38.483Z,72.02
2016-11-12T03:04:38.476Z,72.68
2016-11-12T03:05:38.498Z,71.92
2016-11-12T03:06:38.504Z,72.21
2016-11-12T03:07:38.517Z,71.92
2016-11-12T03:08:38.849Z,71.64
2016-11-12T03:09:38.546Z,71.73
2016-11-12T03:10:38.879Z,71.36
2016-11-12T03:11:38.893Z,71.26
2016-11-12T03:12:38.590Z,71.83
2016-11-12T03:13:38.603Z,71.55
2016-11-12T03:14:38.621Z,71.92
2016-11-12T03:15:38.630Z,72.02
2016-11-12T03:16:38.971Z,72.11
2016-11-12T03:17:38.982Z,72.3
2016-11-12T03:18:38.993Z,72.3
2016-11-12T03:19:39.009Z,72.11
2016-11-12T03:20:39.020Z,72.02
2016-11-12T03:21:38.718Z,71.83
2016-11-12T03:22:39.046Z,71.92
2016-11-12T03:23:39.067Z,72.3
2016-11-12T03:24:39.080Z,72.11
2016-11-12T03:25:39.090Z,72.4
2016-11-12T03:26:39.104Z,72.21
2016-11-12T03:27:38.805Z,72.21
2016-11-12T03:28:39.135Z,71.92
2016-11-12T03:29:38.833Z,72.21
2016-11-12T03:30:39.161Z,72.4
2016-11-12T03:31:39.191Z,72.68
2016-11-12T03:32:38.893Z,72.49
2016-11-12T03:33:38.887Z,71.92
2016-11-12T03:34:38.903Z,72.49
2016-11-12T03:35:39.234Z,71.92
2016-11-12T03:36:39.247Z,72.21
2016-11-12T03:37:38.944Z,72.49
2016-11-12T03:38:38.960Z,72.49
2016-11-12T03:39:38.976Z,72.78
2016-11-12T03:40:38.989Z,72.4
2016-11-12T03:41:39.320Z,72.88
2016-11-12T03:42:39.334Z,72.68
2016-11-12T03:43:39.346Z,72.21
2016-11-12T03:44:39.045Z,72.49
2016-11-12T03:45:39.067Z,72.49
2016-11-12T03:46:39.389Z,72.4
2016-11-12T03:47:39.088Z,72.02
2016-11-12T03:48:39.420Z,72.49
2016-11-12T03:49:39.118Z,72.4
2016-11-12T03:50:39.132Z,72.49
2016-11-12T03:51:39.458Z,72.4
2016-11-12T03:52:39.155Z,73.16
2016-11-12T03:53:39.174Z,72.68
2016-11-12T03:54:39.185Z,72.68
2016-11-12T03:55:39.204Z,72.59
2016-11-12T03:56:39.214Z,72.88
2016-11-12T03:57:39.544Z,73.25
2016-11-12T03:58:39.559Z,73.25
2016-11-12T03:59:39.576Z,73.25
2016-11-12T04:00:39.290Z,72.78
2016-11-12T04:01:39.298Z,73.25
2016-11-12T04:02:39.615Z,74.07
2016-11-12T04:03:39.313Z,74.2
2016-11-12T04:04:39.327Z,73.16
2016-11-12T04:05:39.346Z,73.35
2016-11-12T04:06:39.359Z,72.78
2016-11-12T04:07:39.370Z,73.12
2016-11-12T04:08:39.384Z,73.35
2016-11-12T04:09:39.404Z,73.44
2016-11-12T04:10:39.728Z,73.25
2016-11-12T04:11:39.426Z,73.25
2016-11-12T04:12:39.441Z,73.44
2016-11-12T04:13:39.454Z,73.6
2016-11-12T04:14:39.827Z,73.88
2016-11-12T04:15:39.487Z,73.22
2016-11-12T04:16:39.495Z,73.35
2016-11-12T04:17:39.510Z,73.6
2016-11-12T04:18:39.842Z,73.12
2016-11-12T04:19:39.542Z,73.31
2016-11-12T04:20:39.867Z,72.93
2016-11-12T04:21:39.885Z,73.16
2016-11-12T04:22:39.897Z,73.41
2016-11-12T04:23:39.596Z,73.69
2016-11-12T04:24:39.610Z,73.31
2016-11-12T04:25:39.950Z,73.6
2016-11-12T04:26:39.637Z,73.88
2016-11-12T04:27:39.653Z,73.5
2016-11-12T04:28:39.765Z,73.5
2016-11-12T04:29:39.699Z,73.5
2016-11-12T04:30:40.012Z,73.41
2016-11-12T04:31:39.707Z,73.54
2016-11-12T04:32:39.722Z,73.44
2016-11-12T04:33:39.742Z,73.35
2016-11-12T04:34:39.753Z,73.35
2016-11-12T04:35:39.765Z,73.22
2016-11-12T04:36:39.781Z,73.12
2016-11-12T04:37:39.797Z,73.31
2016-11-12T04:38:39.803Z,73.25
2016-11-12T04:39:39.821Z,73.16
2016-11-12T04:40:40.153Z,73.5
2016-11-12T04:41:39.848Z,74.11
2016-11-12T04:42:39.863Z,73.35
2016-11-12T04:43:39.888Z,73.44
2016-11-12T04:44:39.899Z,73.35
2016-11-12T04:45:39.903Z,73.25
2016-11-12T04:46:40.237Z,73.35
2016-11-12T04:47:40.252Z,73.72
2016-11-12T04:48:40.265Z,73.25
2016-11-12T04:49:40.276Z,73.25
2016-11-12T04:50:40.288Z,73.54
2016-11-12T04:51:39.990Z,73.16
2016-11-12T04:52:40.006Z,72.78
2016-11-12T04:53:40.335Z,73.16
2016-11-12T04:54:40.031Z,73.35
2016-11-12T04:55:40.050Z,72.88
2016-11-12T04:56:40.061Z,72.59
2016-11-12T04:57:40.389Z,72.68
2016-11-12T04:58:40.148Z,73.07
2016-11-12T04:59:40.119Z,72.78
2016-11-12T05:00:40.432Z,72.97
2016-11-12T05:01:40.445Z,73.25
2016-11-12T05:02:40.144Z,73.22
2016-11-12T05:03:40.160Z,73.44
2016-11-12T05:04:40.490Z,73.16
2016-11-12T05:05:40.186Z,73.25
2016-11-12T05:06:40.200Z,73.44
2016-11-12T05:07:40.217Z,73.92
2016-11-12T05:08:40.549Z,73.35
2016-11-12T05:09:40.560Z,73.16
2016-11-12T05:10:40.572Z,72.88
2016-11-12T05:11:40.588Z,72.97
2016-11-12T05:12:40.298Z,72.78
2016-11-12T05:13:40.614Z,72.78
2016-11-12T05:14:40.629Z,72.49
2016-11-12T05:15:40.329Z,72.88
2016-11-12T05:16:40.344Z,73.16
2016-11-12T05:17:40.681Z,72.88
2016-11-12T05:18:40.370Z,72.59
2016-11-12T05:19:40.702Z,73.25
2016-11-12T05:20:40.400Z,73.25
2016-11-12T05:21:40.415Z,73.25
2016-11-12T05:22:40.434Z,72.88
2016-11-12T05:23:40.475Z,73.25
2016-11-12T05:24:40.454Z,73.44
2016-11-12T05:25:40.473Z,73.25
2016-11-12T05:26:40.802Z,73.44
2016-11-12T05:27:40.521Z,73.25
2016-11-12T05:28:40.531Z,73.16
2016-11-12T05:29:40.843Z,73.25
2016-11-12T05:30:40.855Z,73.25
2016-11-12T05:31:40.557Z,73.54
2016-11-12T05:32:40.571Z,73.25
2016-11-12T05:33:40.587Z,73.35
2016-11-12T05:34:40.913Z,73.16
2016-11-12T05:35:40.953Z,73.63
2016-11-12T05:36:40.629Z,73.25
2016-11-12T05:37:40.641Z,73.25
2016-11-12T05:38:40.974Z,73.25
2016-11-12T05:39:40.986Z,73.16
2016-11-12T05:40:40.685Z,73.25
2016-11-12T05:41:41.027Z,73.54
2016-11-12T05:42:41.029Z,73.44
2016-11-12T05:43:41.043Z,73.25
2016-11-12T05:44:41.058Z,73.25
2016-11-12T05:45:40.763Z,73.35
2016-11-12T05:46:40.768Z,73.16
2016-11-12T05:47:40.783Z,73.44
2016-11-12T05:48:41.114Z,73.54
2016-11-12T05:49:40.812Z,73.16
2016-11-12T05:50:40.826Z,73.54
2016-11-12T05:51:41.157Z,73.25
2016-11-12T05:52:41.183Z,73.63
2016-11-12T05:53:40.870Z,73.44
2016-11-12T05:54:40.883Z,74.11
2016-11-12T05:55:40.897Z,73.63
2016-11-12T05:56:41.248Z,74.11
2016-11-12T05:57:40.943Z,73.44
2016-11-12T05:58:40.937Z,73.63
2016-11-12T05:59:41.272Z,73.25
2016-11-12T06:00:40.968Z,73.44
2016-11-12T06:01:40.984Z,74.11
2016-11-12T06:02:41.314Z,74.01
2016-11-12T06:03:41.010Z,74.49
2016-11-12T06:04:41.341Z,74.01
2016-11-12T06:05:41.041Z,74.01
2016-11-12T06:06:41.055Z,73.82
2016-11-12T06:07:41.070Z,74.3
2016-11-12T06:08:41.396Z,74.3
2016-11-12T06:09:41.411Z,74.77
2016-11-12T06:10:41.439Z,74.3
2016-11-12T06:11:41.132Z,74.3
2016-11-12T06:12:41.140Z,73.92
2016-11-12T06:13:41.151Z,74.11
2016-11-12T06:14:41.485Z,73.72
2016-11-12T06:15:41.496Z,73.92
2016-11-12T06:16:41.512Z,73.92
2016-11-12T06:17:41.209Z,73.16
2016-11-12T06:18:41.540Z,73.07
2016-11-12T06:19:41.554Z,73.25
2016-11-12T06:20:41.566Z,73.25
2016-11-12T06:21:41.265Z,73.25
2016-11-12T06:22:41.282Z,73.25
2016-11-12T06:23:41.610Z,73.72
2016-11-12T06:24:41.308Z,73.44
2016-11-12T06:25:41.658Z,73.92
2016-11-12T06:26:41.355Z,74.49
2016-11-12T06:27:41.352Z,74.3
2016-11-12T06:28:41.363Z,73.82
2016-11-12T06:29:41.693Z,74.01
2016-11-12T06:30:41.394Z,74.39
2016-11-12T06:31:41.409Z,74.01
2016-11-12T06:32:41.424Z,74.11
2016-11-12T06:33:41.752Z,73.82
2016-11-12T06:34:41.454Z,74.39
2016-11-12T06:35:41.465Z,74.2
2016-11-12T06:36:41.476Z,73.92
2016-11-12T06:37:41.495Z,74.11
2016-11-12T06:38:41.559Z,74.11
2016-11-12T06:39:41.536Z,74.01
2016-11-12T06:40:41.544Z,73.44
2016-11-12T06:41:41.548Z,73.35
2016-11-12T06:42:41.561Z,73.25
2016-11-12T06:43:41.898Z,73.25
2016-11-12T06:44:41.906Z,73.25
2016-11-12T06:45:41.607Z,73.16
2016-11-12T06:46:41.620Z,73.35
2016-11-12T06:47:41.947Z,73.25
2016-11-12T06:48:41.964Z,73.63
2016-11-12T06:49:41.980Z,73.35
2016-11-12T06:50:41.674Z,73.16
2016-11-12T06:51:42.008Z,73.35
2016-11-12T06:52:42.022Z,73.63
2016-11-12T06:53:41.719Z,73.44
2016-11-12T06:54:41.756Z,75.05
2016-11-12T06:55:42.063Z,76.29
2016-11-12T06:56:41.765Z,76.1
2016-11-12T06:57:41.773Z,76.48
2016-11-12T06:58:41.794Z,75.91
2016-11-12T06:59:41.810Z,75.81
2016-11-12T07:00:42.136Z,75.91
2016-11-12T07:01:42.148Z,75.81
2016-11-12T07:02:41.850Z,75.05
2016-11-12T07:03:42.179Z,74.49
2016-11-12T07:04:42.194Z,74.58
2016-11-12T07:05:42.205Z,74.3
2016-11-12T07:06:41.904Z,74.11
2016-11-12T07:07:41.924Z,74.01
2016-11-12T07:08:42.258Z,74.11
2016-11-12T07:09:41.953Z,73.25
2016-11-12T07:10:42.283Z,73.44
2016-11-12T07:11:41.978Z,73.35
2016-11-12T07:12:41.989Z,73.44
2016-11-12T07:13:42.003Z,73.35
2016-11-12T07:14:42.333Z,73.35
2016-11-12T07:15:42.348Z,73.44
2016-11-12T07:16:42.044Z,73.16
2016-11-12T07:17:42.378Z,73.35
2016-11-12T07:18:42.390Z,73.54
2016-11-12T07:19:42.091Z,73.16
2016-11-12T07:20:42.461Z,73.16
2016-11-12T07:21:42.435Z,73.35
2016-11-12T07:22:42.447Z,73.35
2016-11-12T07:23:42.167Z,73.25
2016-11-12T07:24:42.177Z,73.35
2016-11-12T07:25:42.521Z,73.35
2016-11-12T07:26:42.190Z,73.35
2016-11-12T07:27:42.203Z,73.35
2016-11-12T07:28:42.214Z,73.35
2016-11-12T07:29:42.547Z,73.35
2016-11-12T07:30:42.559Z,73.25
2016-11-12T07:31:42.574Z,73.25
2016-11-12T07:32:42.590Z,73.16
2016-11-12T07:33:42.286Z,73.35
2016-11-12T07:34:42.302Z,73.16
2016-11-12T07:35:42.635Z,73.16
2016-11-12T07:36:42.642Z,73.25
2016-11-12T07:37:42.356Z,73.44
2016-11-12T07:38:42.676Z,73.07
2016-11-12T07:39:42.373Z,73.25
2016-11-12T07:40:42.700Z,74.11
2016-11-12T07:41:42.723Z,74.3
2016-11-12T07:42:42.731Z,73.72
2016-11-12T07:43:42.743Z,73.92
2016-11-12T07:44:42.440Z,73.92
2016-11-12T07:45:42.457Z,74.2
2016-11-12T07:46:42.786Z,73.25
2016-11-12T07:47:42.483Z,73.25
2016-11-12T07:48:42.522Z,73.54
2016-11-12T07:49:42.515Z,74.11
2016-11-12T07:50:42.847Z,73.92
2016-11-12T07:51:42.552Z,73.54
2016-11-12T07:52:42.574Z,73.63
2016-11-12T07:53:42.586Z,74.3
2016-11-12T07:54:42.583Z,73.72
2016-11-12T07:55:42.912Z,73.16
2016-11-12T07:56:42.930Z,73.25
2016-11-12T07:57:42.624Z,73.44
2016-11-12T07:58:42.641Z,73.54
2016-11-12T07:59:42.653Z,73.72
2016-11-12T08:00:42.670Z,73.92
2016-11-12T08:01:42.681Z,74.01
2016-11-12T08:02:43.016Z,73.54
2016-11-12T08:03:42.709Z,73.44
2016-11-12T08:04:42.771Z,73.44
2016-11-12T08:05:42.737Z,73.25
2016-11-12T08:06:42.761Z,73.72
2016-11-12T08:07:42.775Z,73.07
2016-11-12T08:08:43.094Z,73.72
2016-11-12T08:09:43.110Z,73.72
2016-11-12T08:10:42.808Z,74.39
2016-11-12T08:11:43.140Z,74.39
2016-11-12T08:12:42.842Z,73.92
2016-11-12T08:13:43.167Z,74.01
2016-11-12T08:14:43.185Z,73.82
2016-11-12T08:15:43.192Z,74.77
2016-11-12T08:16:43.209Z,74.11
2016-11-12T08:17:42.909Z,74.01
2016-11-12T08:18:42.921Z,73.92
2016-11-12T08:19:42.936Z,74.01
2016-11-12T08:20:43.264Z,74.49
2016-11-12T08:21:43.282Z,73.92
2016-11-12T08:22:42.998Z,74.11
2016-11-12T08:23:43.307Z,73.72
2016-11-12T08:24:43.006Z,73.44
2016-11-12T08:25:43.336Z,73.44
2016-11-12T08:26:43.037Z,73.16
2016-11-12T08:27:43.050Z,73.44
2016-11-12T08:28:43.063Z,74.2
2016-11-12T08:29:43.396Z,74.49
2016-11-12T08:30:43.409Z,74.11
2016-11-12T08:31:43.428Z,73.92
2016-11-12T08:32:43.439Z,73.54
2016-11-12T08:33:43.453Z,73.63
2016-11-12T08:34:43.151Z,73.25
2016-11-12T08:35:43.180Z,73.16
2016-11-12T08:36:43.187Z,72.78
2016-11-12T08:37:43.203Z,73.35
2016-11-12T08:38:43.530Z,73.48
2016-11-12T08:39:43.540Z,72.34
2016-11-12T08:40:43.235Z,72.97
2016-11-12T08:41:43.255Z,73.16
2016-11-12T08:42:43.267Z,73.29
2016-11-12T08:43:43.284Z,73.38
2016-11-12T08:44:43.611Z,73.29
2016-11-12T08:45:43.626Z,73
2016-11-12T08:46:43.649Z,73.1
2016-11-12T08:47:43.657Z,72.81
2016-11-12T08:48:43.668Z,72.44
2016-11-12T08:49:43.379Z,72.91
2016-11-12T08:50:43.714Z,72.81
2016-11-12T08:51:43.710Z,72.81
2016-11-12T08:52:43.728Z,72.44
2016-11-12T08:53:43.742Z,72.72
2016-11-12T08:54:43.754Z,72.53
2016-11-12T08:55:43.457Z,71.77
2016-11-12T08:56:43.788Z,70.63
2016-11-12T08:57:43.802Z,71.11
2016-11-12T08:58:43.499Z,71.2
2016-11-12T08:59:43.511Z,69.87
2016-11-12T09:00:43.849Z,70.35
2016-11-12T09:01:43.546Z,70.82
2016-11-12T09:02:43.878Z,69.96
2016-11-12T09:03:43.886Z,71.01
2016-11-12T09:04:43.909Z,71.2
2016-11-12T09:05:43.615Z,71.48
2016-11-12T09:06:43.620Z,71.96
2016-11-12T09:07:43.950Z,71.39
2016-11-12T09:08:43.960Z,71.77
2016-11-12T09:09:43.978Z,71.39
2016-11-12T09:10:43.674Z,71.3
2016-11-12T09:11:44.004Z,70.25
2016-11-12T09:12:44.023Z,69.4
2016-11-12T09:13:44.037Z,70.25
2016-11-12T09:14:43.738Z,70.73
2016-11-12T09:15:44.064Z,71.2
2016-11-12T09:16:44.081Z,71.48
2016-11-12T09:17:44.095Z,70.73
2016-11-12T09:18:43.794Z,69.49
2016-11-12T09:19:44.126Z,69.78
2016-11-12T09:20:43.828Z,70.35
2016-11-12T09:21:43.839Z,70.82
2016-11-12T09:22:43.853Z,70.35
2016-11-12T09:23:43.869Z,70.92
2016-11-12T09:24:43.879Z,71.11
2016-11-12T09:25:44.212Z,71.2
2016-11-12T09:26:43.932Z,71.11
2016-11-12T09:27:43.943Z,71.11
2016-11-12T09:28:44.255Z,71.23
2016-11-12T09:29:43.957Z,70.92
2016-11-12T09:30:43.969Z,70.35
2016-11-12T09:31:43.981Z,69.96
2016-11-12T09:32:43.998Z,69.34
2016-11-12T09:33:44.014Z,69.43
2016-11-12T09:34:44.030Z,69.87
2016-11-12T09:35:44.356Z,70.06
2016-11-12T09:36:44.058Z,70.06
2016-11-12T09:37:44.443Z,70.35
2016-11-12T09:38:44.406Z,69.3
2016-11-12T09:39:44.418Z,69.11
2016-11-12T09:40:44.433Z,69.68
2016-11-12T09:41:44.449Z,71.01
2016-11-12T09:42:44.460Z,70.73
2016-11-12T09:43:44.159Z,69.87
2016-11-12T09:44:44.487Z,69.68
2016-11-12T09:45:44.187Z,70.25
2016-11-12T09:46:44.518Z,70.06
2016-11-12T09:47:44.218Z,71.39
2016-11-12T09:48:44.236Z,71.67
2016-11-12T09:49:44.562Z,71.01
2016-11-12T09:50:44.580Z,70.92
2016-11-12T09:51:44.278Z,71.01
2016-11-12T09:52:44.296Z,70.73
2016-11-12T09:53:44.621Z,70.06
2016-11-12T09:54:44.321Z,70.06
2016-11-12T09:55:44.660Z,70.35
2016-11-12T09:56:44.664Z,69.49
2016-11-12T09:57:44.365Z,70.25
2016-11-12T09:58:44.382Z,70.25
2016-11-12T09:59:44.395Z,69.4
2016-11-12T10:00:44.412Z,70.25
2016-11-12T10:01:44.429Z,70.25
2016-11-12T10:02:44.457Z,70.73
2016-11-12T10:03:44.771Z,70.73
2016-11-12T10:04:44.470Z,71.3
2016-11-12T10:05:44.487Z,71.3
2016-11-12T10:06:44.499Z,71.39
2016-11-12T10:07:44.512Z,70.73
2016-11-12T10:08:44.528Z,69.59
2016-11-12T10:09:44.859Z,69.68
2016-11-12T10:10:44.881Z,69.59
2016-11-12T10:11:44.577Z,69.21
2016-11-12T10:12:44.689Z,69.49
2016-11-12T10:13:44.634Z,69.96
2016-11-12T10:14:44.929Z,69.78
2016-11-12T10:15:44.629Z,69.68
2016-11-12T10:16:44.646Z,70.35
2016-11-12T10:17:44.971Z,69.59
2016-11-12T10:18:44.673Z,69.78
2016-11-12T10:19:44.690Z,69.59
2016-11-12T10:20:44.702Z,68.64
2016-11-12T10:21:44.716Z,69.49
2016-11-12T10:22:45.047Z,68.44
2016-11-12T10:23:45.061Z,68.16
2016-11-12T10:24:45.075Z,68.16
2016-11-12T10:25:45.095Z,68.16
2016-11-12T10:26:44.793Z,67.63
2016-11-12T10:27:45.121Z,67.69
2016-11-12T10:28:44.820Z,67.63
2016-11-12T10:29:45.152Z,67.82
2016-11-12T10:30:44.852Z,68.58
2016-11-12T10:31:45.180Z,68.1
2016-11-12T10:32:44.882Z,67.25
2016-11-12T10:33:45.208Z,66.87
2016-11-12T10:34:44.909Z,67.63
2016-11-12T10:35:45.243Z,68.07
2016-11-12T10:36:44.939Z,68.48
2016-11-12T10:37:45.270Z,68.29
2016-11-12T10:38:44.965Z,68.48
2016-11-12T10:39:45.297Z,69.43
2016-11-12T10:40:45.315Z,69.81
2016-11-12T10:41:45.012Z,69.91
2016-11-12T10:42:45.025Z,68.39
2016-11-12T10:43:45.358Z,68.58
2016-11-12T10:44:45.055Z,68.39
2016-11-12T10:45:45.389Z,68.39
2016-11-12T10:46:45.105Z,68.67
2016-11-12T10:47:45.417Z,69.34
2016-11-12T10:48:45.115Z,67.91
2016-11-12T10:49:45.448Z,67.25
2016-11-12T10:50:45.200Z,66.96
2016-11-12T10:51:45.163Z,67.44
2016-11-12T10:52:45.491Z,65.82
2016-11-12T10:53:45.190Z,65.92
2016-11-12T10:54:45.204Z,66.2
2016-11-12T10:55:45.221Z,66.67
2016-11-12T10:56:45.235Z,66.58
2016-11-12T10:57:45.253Z,66.2
2016-11-12T10:58:45.589Z,65.82
2016-11-12T10:59:45.630Z,66.2
2016-11-12T11:00:45.296Z,66.49
2016-11-12T11:01:45.325Z,66.49
2016-11-12T11:02:45.334Z,66.58
2016-11-12T11:03:45.343Z,66.11
2016-11-12T11:04:45.700Z,66.11
2016-11-12T11:05:45.373Z,66.01
2016-11-12T11:06:45.388Z,67.15
2016-11-12T11:07:45.718Z,67.06
2016-11-12T11:08:45.735Z,66.39
2016-11-12T11:09:45.748Z,66.2
2016-11-12T11:10:45.760Z,66.77
2016-11-12T11:11:45.467Z,66.67
2016-11-12T11:12:45.791Z,66.11
2016-11-12T11:13:45.492Z,65.63
2016-11-12T11:14:45.505Z,65.16
2016-11-12T11:15:45.532Z,65.16
2016-11-12T11:16:45.852Z,65.16
2016-11-12T11:17:45.550Z,64.87
2016-11-12T11:18:45.879Z,65.73
2016-11-12T11:19:45.934Z,66.11
2016-11-12T11:20:45.914Z,65.82
2016-11-12T11:21:45.612Z,64.78
2016-11-12T11:22:45.943Z,64.87
2016-11-12T11:23:45.961Z,65.54
2016-11-12T11:24:45.658Z,65.82
2016-11-12T11:25:45.986Z,64.97
2016-11-12T11:26:46.003Z,63.83
2016-11-12T11:27:46.016Z,64.11
2016-11-12T11:28:45.715Z,65.19
2016-11-12T11:29:45.732Z,64.05
2016-11-12T11:30:46.064Z,64.02
2016-11-12T11:31:46.081Z,64.87
2016-11-12T11:32:46.096Z,65.63
2016-11-12T11:33:46.109Z,65.82
2016-11-12T11:34:46.123Z,65.28
2016-11-12T11:35:45.823Z,64.43
2016-11-12T11:36:45.840Z,64.34
2016-11-12T11:37:45.856Z,64.43
2016-11-12T11:38:45.870Z,64.05
2016-11-12T11:39:46.199Z,62.81
2016-11-12T11:40:45.901Z,62.62
2016-11-12T11:41:46.233Z,62.24
2016-11-12T11:42:45.931Z,61.96
2016-11-12T11:43:45.947Z,62.24
2016-11-12T11:44:45.964Z,63.1
2016-11-12T11:45:46.291Z,63.64
2016-11-12T11:46:46.341Z,63.73
2016-11-12T11:47:46.324Z,64.53
2016-11-12T11:48:46.346Z,63.67
2016-11-12T11:49:46.353Z,63.01
2016-11-12T11:50:46.367Z,62.15
2016-11-12T11:51:46.385Z,62.81
2016-11-12T11:52:46.086Z,62.24
2016-11-12T11:53:46.101Z,61.29
2016-11-12T11:54:46.433Z,61.96
2016-11-12T11:55:46.455Z,62.21
2016-11-12T11:56:46.156Z,61.87
2016-11-12T11:57:46.482Z,62.34
2016-11-12T11:58:46.492Z,62.15
2016-11-12T11:59:46.521Z,63.29
2016-11-12T12:00:46.519Z,62.43
2016-11-12T12:01:46.536Z,61.29
2016-11-12T12:02:46.236Z,61.39
2016-11-12T12:03:46.570Z,60.91
2016-11-12T12:04:46.584Z,60.63
2016-11-12T12:05:46.603Z,61.2
2016-11-12T12:06:46.617Z,61.68
2016-11-12T12:07:46.629Z,61.77
2016-11-12T12:08:46.327Z,62.15
2016-11-12T12:09:46.344Z,62.34
2016-11-12T12:10:46.678Z,61.2
2016-11-12T12:11:46.376Z,61.29
2016-11-12T12:12:46.706Z,61.39
2016-11-12T12:13:46.961Z,60.06
2016-11-12T12:14:46.430Z,60.35
2016-11-12T12:15:46.437Z,61.01
2016-11-12T12:16:46.451Z,59.58
2016-11-12T12:17:46.469Z,60.44
2016-11-12T12:18:46.799Z,60.91
2016-11-12T12:19:46.814Z,60.44
2016-11-12T12:20:46.514Z,60.82
2016-11-12T12:21:46.551Z,60.16
2016-11-12T12:22:46.860Z,59.77
2016-11-12T12:23:46.562Z,59.87
2016-11-12T12:24:46.577Z,59.96
2016-11-12T12:25:46.595Z,60.53
2016-11-12T12:26:46.609Z,60.44
2016-11-12T12:27:46.623Z,61.29
2016-11-12T12:28:46.641Z,61.48
2016-11-12T12:29:46.968Z,61.48
2016-11-12T12:30:46.667Z,61.58
2016-11-12T12:31:46.997Z,61.39
2016-11-12T12:32:46.696Z,60.53
2016-11-12T12:33:46.713Z,61.1
2016-11-12T12:34:46.728Z,60.35
2016-11-12T12:35:47.079Z,59.01
2016-11-12T12:36:46.772Z,59.3
2016-11-12T12:37:46.783Z,60.44
2016-11-12T12:38:46.791Z,59.39
2016-11-12T12:39:46.806Z,58.92
2016-11-12T12:40:47.135Z,58.83
2016-11-12T12:41:47.154Z,59.11
2016-11-12T12:42:46.853Z,59.3
2016-11-12T12:43:46.868Z,59.77
2016-11-12T12:44:46.883Z,59.87
2016-11-12T12:45:47.213Z,60.06
2016-11-12T12:46:47.232Z,59.68
2016-11-12T12:47:46.929Z,59.11
2016-11-12T12:48:46.942Z,59.11
2016-11-12T12:49:46.963Z,59.2
2016-11-12T12:50:46.978Z,60.25
2016-11-12T12:51:46.995Z,59.2
2016-11-12T12:52:47.326Z,58.83
2016-11-12T12:53:47.337Z,59.2
2016-11-12T12:54:47.038Z,59.3
2016-11-12T12:55:47.054Z,59.2
2016-11-12T12:56:47.070Z,58.83